createdAt,value
2018-06-02T00:00:30.477Z,17.00
2018-06-02T00:02:56.657Z,17.00
2018-06-02T00:05:22.843Z,16.90
2018-06-02T00:07:49.046Z,16.90
2018-06-02T00:10:15.501Z,16.90
2018-06-02T00:12:41.687Z,16.90
2018-06-02T00:15:07.937Z,16.90
2018-06-02T00:17:34.141Z,16.90
2018-06-02T00:20:00.399Z,17.00
2018-06-02T00:22:26.736Z,17.00
2018-06-02T00:24:52.973Z,17.00
2018-06-02T00:27:19.338Z,17.00
2018-06-02T00:29:46.360Z,16.90
2018-06-02T00:32:12.711Z,16.90
2018-06-02T00:34:39.794Z,16.80
2018-06-02T00:37:06.070Z,16.80
2018-06-02T00:39:33.144Z,16.70
2018-06-02T00:41:59.412Z,16.70
2018-06-02T00:44:25.814Z,16.70
2018-06-02T00:46:52.882Z,16.70
2018-06-02T00:49:19.168Z,16.60
2018-06-02T00:51:45.425Z,16.70
2018-06-02T00:54:11.716Z,16.60
2018-06-02T00:56:37.958Z,16.60
2018-06-02T00:59:04.224Z,16.70
2018-06-02T01:01:30.533Z,16.70
2018-06-02T01:03:56.782Z,16.80
2018-06-02T01:06:23.059Z,16.80
2018-06-02T01:08:49.380Z,16.80
2018-06-02T01:11:15.694Z,16.70
2018-06-02T01:13:42.036Z,16.70
2018-06-02T01:16:09.038Z,16.70
2018-06-02T01:18:35.317Z,16.60
2018-06-02T01:21:01.565Z,16.70
2018-06-02T01:23:27.799Z,16.70
2018-06-02T01:25:54.050Z,16.60
2018-06-02T01:28:21.122Z,16.60
2018-06-02T01:30:47.837Z,16.60
2018-06-02T01:33:14.186Z,16.50
2018-06-02T01:35:40.508Z,16.40
2018-06-02T01:38:06.790Z,16.40
2018-06-02T01:40:33.791Z,16.20
2018-06-02T01:43:00.075Z,16.20
2018-06-02T01:45:26.333Z,16.20
2018-06-02T01:47:52.631Z,16.20
2018-06-02T01:50:18.922Z,16.20
2018-06-02T01:52:45.916Z,16.20
2018-06-02T01:55:12.146Z,16.20
2018-06-02T01:57:38.465Z,16.10
2018-06-02T02:00:05.447Z,16.10
2018-06-02T02:02:31.719Z,16.00
2018-06-02T02:04:58.115Z,16.10
2018-06-02T02:07:24.394Z,16.10
2018-06-02T02:09:50.662Z,16.00
2018-06-02T02:12:16.944Z,16.00
2018-06-02T02:14:43.922Z,16.00
2018-06-02T02:17:10.237Z,16.00
2018-06-02T02:19:37.235Z,15.90
2018-06-02T02:22:03.524Z,15.90
2018-06-02T02:24:29.830Z,16.10
2018-06-02T02:26:56.074Z,16.10
2018-06-02T02:29:22.414Z,16.10
2018-06-02T02:31:48.758Z,16.10
2018-06-02T02:34:14.982Z,16.10
2018-06-02T02:36:41.289Z,16.10
2018-06-02T02:39:08.272Z,16.20
2018-06-02T02:41:34.598Z,16.20
2018-06-02T02:44:01.620Z,16.10
2018-06-02T02:46:27.893Z,16.10
2018-06-02T02:48:54.829Z,15.90
2018-06-02T02:51:21.121Z,15.90
2018-06-02T02:53:47.419Z,15.90
2018-06-02T02:56:13.735Z,16.00
2018-06-02T02:58:40.029Z,15.90
2018-06-02T03:01:07.096Z,15.90
2018-06-02T03:03:34.099Z,15.90
2018-06-02T03:06:00.437Z,15.90
2018-06-02T03:08:26.650Z,15.90
2018-06-02T03:10:52.907Z,15.80
2018-06-02T03:13:19.255Z,15.80
2018-06-02T03:15:45.504Z,15.80
2018-06-02T03:18:11.799Z,15.80
2018-06-02T03:20:38.837Z,15.70
2018-06-02T03:23:05.141Z,15.60
2018-06-02T03:25:31.420Z,15.60
2018-06-02T03:27:57.682Z,15.60
2018-06-02T03:30:24.740Z,15.60
2018-06-02T03:32:51.047Z,15.60
2018-06-02T03:35:17.417Z,15.60
2018-06-02T03:37:43.799Z,15.60
2018-06-02T03:40:10.128Z,15.60
2018-06-02T03:42:36.484Z,15.60
2018-06-02T03:45:02.756Z,15.70
2018-06-02T03:47:29.014Z,15.90
2018-06-02T03:49:55.336Z,15.80
2018-06-02T03:52:21.670Z,15.80
2018-06-02T03:54:47.920Z,15.80
2018-06-02T03:57:14.169Z,15.80
2018-06-02T03:59:40.446Z,15.80
2018-06-02T04:02:07.512Z,15.80
2018-06-02T04:04:34.608Z,16.00
2018-06-02T04:07:00.876Z,16.00
2018-06-02T04:09:27.158Z,16.00
2018-06-02T04:11:54.352Z,16.10
2018-06-02T04:14:20.704Z,16.00
2018-06-02T04:16:46.976Z,16.20
2018-06-02T04:19:13.383Z,16.30
2018-06-02T04:21:40.408Z,16.30
2018-06-02T04:24:06.651Z,16.30
2018-06-02T04:26:32.976Z,16.30
2018-06-02T04:28:59.331Z,16.30
2018-06-02T04:31:26.407Z,16.40
2018-06-02T04:33:53.498Z,16.40
2018-06-02T04:36:19.779Z,16.40
2018-06-02T04:38:46.163Z,16.40
2018-06-02T04:41:12.665Z,16.50
2018-06-02T04:43:39.717Z,16.60
2018-06-02T04:46:06.138Z,16.60
2018-06-02T04:48:32.432Z,16.70
2018-06-02T04:50:58.762Z,16.80
2018-06-02T04:53:25.052Z,17.00
2018-06-02T04:55:51.341Z,17.10
2018-06-02T04:58:17.742Z,17.20
2018-06-02T05:00:44.008Z,17.40
2018-06-02T05:03:10.340Z,17.60
2018-06-02T05:05:36.595Z,17.70
2018-06-02T05:08:02.892Z,17.60
2018-06-02T05:10:29.192Z,17.70
2018-06-02T05:12:55.501Z,17.80
2018-06-02T05:15:21.768Z,17.80
2018-06-02T05:17:48.095Z,17.90
2018-06-02T05:20:14.368Z,18.10
2018-06-02T05:22:40.657Z,18.10
2018-06-02T05:25:06.955Z,18.10
2018-06-02T05:27:33.221Z,18.30
2018-06-02T05:30:00.279Z,18.30
2018-06-02T05:32:27.345Z,18.30
2018-06-02T05:34:54.487Z,18.30
2018-06-02T05:37:20.807Z,18.30
2018-06-02T05:39:51.448Z,18.60
2018-06-02T05:42:18.479Z,19.00
2018-06-02T05:44:44.829Z,19.00
2018-06-02T05:47:11.105Z,19.00
2018-06-02T05:49:37.523Z,19.10
2018-06-02T05:52:03.789Z,19.20
2018-06-02T05:54:30.069Z,19.30
2018-06-02T05:56:57.088Z,19.70
2018-06-02T05:59:23.386Z,19.60
2018-06-02T06:01:49.664Z,19.60
2018-06-02T06:04:16.012Z,19.60
2018-06-02T06:06:42.273Z,19.60
2018-06-02T06:09:08.510Z,19.70
2018-06-02T06:11:34.818Z,19.80
2018-06-02T06:14:01.096Z,19.70
2018-06-02T06:16:27.327Z,19.60
2018-06-02T06:18:53.620Z,19.50
2018-06-02T06:21:19.971Z,19.90
2018-06-02T06:23:46.252Z,20.90
2018-06-02T06:26:13.319Z,22.50
2018-06-02T06:28:39.538Z,22.50
2018-06-02T06:31:05.792Z,23.20
2018-06-02T06:33:32.090Z,23.60
2018-06-02T06:35:58.348Z,24.00
2018-06-02T06:38:24.647Z,23.80
2018-06-02T06:40:51.796Z,23.20
2018-06-02T06:43:18.175Z,23.20
2018-06-02T06:45:44.523Z,23.00
2018-06-02T06:48:11.608Z,23.10
2018-06-02T06:50:37.945Z,23.10
2018-06-02T06:53:04.370Z,23.00
2018-06-02T06:55:30.711Z,22.70
2018-06-02T06:57:56.968Z,22.20
2018-06-02T07:00:23.279Z,22.20
2018-06-02T07:02:49.707Z,22.00
2018-06-02T07:05:16.058Z,21.80
2018-06-02T07:07:42.415Z,21.60
2018-06-02T07:10:09.400Z,21.30
2018-06-02T07:12:35.666Z,21.30
2018-06-02T07:15:01.936Z,21.30
2018-06-02T07:17:28.138Z,21.40
2018-06-02T07:19:54.479Z,21.60
2018-06-02T07:22:20.721Z,21.50
2018-06-02T07:24:47.077Z,21.60
2018-06-02T07:27:13.339Z,21.70
2018-06-02T07:29:39.649Z,21.80
2018-06-02T07:32:05.928Z,21.80
2018-06-02T07:34:32.280Z,21.90
2018-06-02T07:36:58.521Z,22.10
2018-06-02T07:39:24.783Z,22.30
2018-06-02T07:41:51.800Z,22.60
2018-06-02T07:44:18.076Z,22.60
2018-06-02T07:46:44.328Z,22.40
2018-06-02T07:49:10.559Z,22.20
2018-06-02T07:51:36.827Z,22.30
2018-06-02T07:54:03.108Z,22.30
2018-06-02T07:56:29.440Z,22.20
2018-06-02T07:58:55.893Z,22.10
2018-06-02T08:01:22.931Z,21.90
2018-06-02T08:03:49.172Z,21.90
2018-06-02T08:06:15.510Z,21.80
2018-06-02T08:08:41.793Z,21.70
2018-06-02T08:11:08.198Z,21.50
2018-06-02T08:13:34.492Z,21.40
2018-06-02T08:16:00.784Z,21.60
2018-06-02T08:18:27.068Z,21.70
2018-06-02T08:20:53.413Z,21.70
2018-06-02T08:23:19.743Z,21.70
2018-06-02T08:25:46.085Z,21.60
2018-06-02T08:28:12.449Z,21.60
2018-06-02T08:30:39.512Z,22.00
2018-06-02T08:33:05.784Z,22.00
2018-06-02T08:35:32.176Z,21.80
2018-06-02T08:37:58.442Z,21.80
2018-06-02T08:40:24.746Z,21.70
2018-06-02T08:42:51.058Z,21.80
2018-06-02T08:45:17.326Z,21.70
2018-06-02T08:47:43.610Z,21.80
2018-06-02T08:50:09.780Z,21.90
2018-06-02T08:52:36.685Z,21.90
2018-06-02T08:55:02.915Z,21.90
2018-06-02T08:57:29.138Z,21.80
2018-06-02T08:59:55.317Z,21.70
2018-06-02T09:02:21.512Z,21.70
2018-06-02T09:04:47.782Z,21.70
2018-06-02T09:07:13.987Z,21.90
2018-06-02T09:09:40.899Z,22.30
2018-06-02T09:12:07.056Z,22.30
2018-06-02T09:14:33.352Z,22.40
2018-06-02T09:16:59.556Z,22.70
2018-06-02T09:19:26.503Z,22.80
2018-06-02T09:21:53.440Z,22.80
2018-06-02T09:24:19.735Z,22.80
2018-06-02T09:26:45.897Z,22.80
2018-06-02T09:29:12.903Z,22.70
2018-06-02T09:31:39.865Z,22.60
2018-06-02T09:34:06.883Z,22.40
2018-06-02T09:36:33.031Z,22.40
2018-06-02T09:38:59.228Z,22.40
2018-06-02T09:41:26.646Z,22.40
2018-06-02T09:43:53.413Z,22.20
2018-06-02T09:46:20.482Z,21.70
2018-06-02T09:48:49.286Z,21.80
2018-06-02T09:51:15.652Z,21.40
2018-06-02T09:53:44.914Z,21.30
2018-06-02T09:56:11.580Z,21.30
2018-06-02T09:58:37.939Z,21.40
2018-06-02T10:01:04.994Z,21.80
2018-06-02T10:03:32.279Z,21.80
2018-06-02T10:05:59.318Z,21.80
2018-06-02T10:08:28.371Z,21.90
2018-06-02T10:10:54.619Z,21.90
2018-06-02T10:13:21.630Z,22.30
2018-06-02T10:15:48.139Z,22.30
2018-06-02T10:18:14.480Z,22.50
2018-06-02T10:20:40.718Z,22.70
2018-06-02T10:23:07.021Z,22.70
2018-06-02T10:25:33.267Z,22.70
2018-06-02T10:27:59.554Z,22.60
2018-06-02T10:30:26.158Z,22.60
2018-06-02T10:32:52.459Z,22.30
2018-06-02T10:35:18.790Z,22.20
2018-06-02T10:37:45.143Z,22.00
2018-06-02T10:40:11.512Z,22.20
2018-06-02T10:42:38.670Z,22.90
2018-06-02T10:45:05.780Z,23.10
2018-06-02T10:47:32.097Z,23.10
2018-06-02T10:49:58.402Z,23.40
2018-06-02T10:52:24.653Z,23.50
2018-06-02T10:54:50.986Z,23.70
2018-06-02T10:57:17.271Z,23.90
2018-06-02T10:59:43.570Z,24.00
2018-06-02T11:02:09.937Z,23.70
2018-06-02T11:04:36.214Z,23.80
2018-06-02T11:07:02.536Z,24.20
2018-06-02T11:09:28.818Z,24.40
2018-06-02T11:11:55.528Z,24.40
2018-06-02T11:14:21.842Z,24.30
2018-06-02T11:16:48.176Z,24.10
2018-06-02T11:19:14.456Z,23.80
2018-06-02T11:21:40.761Z,23.40
2018-06-02T11:24:07.026Z,23.20
2018-06-02T11:26:34.030Z,23.30
2018-06-02T11:29:00.328Z,23.30
2018-06-02T11:31:27.055Z,23.30
2018-06-02T11:33:53.858Z,23.20
2018-06-02T11:36:20.150Z,23.20
2018-06-02T11:38:46.562Z,23.40
2018-06-02T11:41:12.999Z,23.50
2018-06-02T11:43:39.309Z,23.60
2018-06-02T11:46:06.339Z,23.20
2018-06-02T11:48:32.619Z,23.20
2018-06-02T11:50:59.646Z,23.10
2018-06-02T11:53:25.937Z,23.00
2018-06-02T11:55:52.286Z,23.00
2018-06-02T11:58:18.581Z,23.00
2018-06-02T12:00:44.855Z,23.00
2018-06-02T12:03:11.200Z,22.90
2018-06-02T12:05:37.824Z,22.90
2018-06-02T12:08:05.255Z,22.80
2018-06-02T12:10:31.636Z,22.60
2018-06-02T12:12:58.387Z,22.50
2018-06-02T12:15:24.724Z,22.30
2018-06-02T12:17:51.291Z,22.30
2018-06-02T12:20:18.181Z,22.30
2018-06-02T12:22:44.637Z,22.20
2018-06-02T12:25:12.580Z,22.30
2018-06-02T12:27:39.707Z,22.40
2018-06-02T12:30:06.108Z,22.30
2018-06-02T12:32:32.455Z,22.40
2018-06-02T12:34:58.824Z,22.30
2018-06-02T12:37:25.086Z,22.30
2018-06-02T12:39:51.425Z,22.30
2018-06-02T12:42:18.929Z,22.40
2018-06-02T12:44:45.280Z,22.60
2018-06-02T12:47:12.456Z,22.90
2018-06-02T12:49:38.786Z,22.90
2018-06-02T12:52:05.847Z,23.10
2018-06-02T12:54:33.039Z,23.20
2018-06-02T12:56:59.680Z,23.20
2018-06-02T12:59:26.201Z,23.30
2018-06-02T13:01:53.225Z,23.30
2018-06-02T13:04:21.676Z,23.30
2018-06-02T13:06:48.718Z,23.50
2018-06-02T13:09:15.040Z,23.50
2018-06-02T13:11:41.368Z,23.60
2018-06-02T13:14:07.682Z,23.60
2018-06-02T13:16:34.099Z,23.60
2018-06-02T13:19:01.186Z,24.00
2018-06-02T13:21:27.489Z,23.90
2018-06-02T13:23:54.520Z,24.40
2018-06-02T13:26:20.787Z,24.40
2018-06-02T13:28:48.261Z,24.80
2018-06-02T13:31:15.254Z,25.00
2018-06-02T13:33:41.557Z,25.00
2018-06-02T13:36:08.656Z,25.20
2018-06-02T13:38:34.913Z,25.20
2018-06-02T13:41:01.178Z,25.10
2018-06-02T13:43:27.566Z,25.30
2018-06-02T13:45:53.868Z,25.20
2018-06-02T13:48:20.208Z,25.00
2018-06-02T13:50:46.494Z,24.80
2018-06-02T13:53:13.562Z,24.30
2018-06-02T13:55:39.822Z,24.30
2018-06-02T13:58:06.129Z,24.30
2018-06-02T14:00:33.235Z,24.10
2018-06-02T14:02:59.547Z,24.10
2018-06-02T14:05:25.873Z,24.00
2018-06-02T14:07:53.002Z,24.20
2018-06-02T14:10:19.291Z,24.20
2018-06-02T14:12:46.362Z,24.50
2018-06-02T14:15:12.735Z,24.40
2018-06-02T14:17:39.067Z,24.50
2018-06-02T14:20:05.320Z,24.50
2018-06-02T14:22:31.641Z,24.50
2018-06-02T14:24:57.942Z,24.50
2018-06-02T14:27:25.008Z,24.30
2018-06-02T14:29:51.353Z,24.30
2018-06-02T14:32:17.688Z,24.40
2018-06-02T14:34:44.006Z,24.40
2018-06-02T14:37:10.292Z,24.40
2018-06-02T14:39:37.332Z,24.60
2018-06-02T14:42:03.618Z,24.50
2018-06-02T14:44:29.873Z,24.70
2018-06-02T14:46:56.246Z,24.60
2018-06-02T14:49:22.528Z,24.40
2018-06-02T14:51:49.098Z,24.20
2018-06-02T14:54:15.377Z,24.20
2018-06-02T14:56:43.123Z,24.20
2018-06-02T14:59:09.552Z,24.20
2018-06-02T15:01:36.312Z,24.20
2018-06-02T15:04:02.809Z,24.30
2018-06-02T15:06:29.312Z,24.30
2018-06-02T15:08:55.625Z,24.40
2018-06-02T15:11:22.596Z,24.50
2018-06-02T15:13:50.122Z,24.40
2018-06-02T15:16:16.450Z,24.40
2018-06-02T15:18:42.744Z,24.30
2018-06-02T15:21:09.770Z,24.20
2018-06-02T15:23:36.079Z,24.10
2018-06-02T15:26:02.570Z,24.10
2018-06-02T15:28:28.993Z,24.10
2018-06-02T15:30:55.269Z,24.00
2018-06-02T15:33:22.279Z,23.90
2018-06-02T15:35:49.763Z,23.90
2018-06-02T15:38:16.028Z,24.00
2018-06-02T15:40:43.014Z,24.20
2018-06-02T15:43:09.270Z,24.60
2018-06-02T15:45:35.569Z,24.80
2018-06-02T15:48:01.902Z,24.80
2018-06-02T15:50:28.297Z,24.70
2018-06-02T15:52:54.841Z,24.70
2018-06-02T15:55:21.162Z,24.70
2018-06-02T15:57:51.609Z,24.60
2018-06-02T16:00:19.469Z,24.50
2018-06-02T16:02:46.439Z,24.30
2018-06-02T16:05:13.824Z,24.30
2018-06-02T16:07:40.079Z,24.30
2018-06-02T16:10:06.392Z,24.10
2018-06-02T16:12:33.471Z,24.00
2018-06-02T16:14:59.829Z,24.00
2018-06-02T16:17:26.430Z,23.90
2018-06-02T16:19:52.903Z,23.70
2018-06-02T16:22:19.523Z,23.70
2018-06-02T16:24:46.641Z,23.60
2018-06-02T16:27:12.979Z,23.50
2018-06-02T16:29:39.246Z,23.30
2018-06-02T16:32:06.335Z,23.10
2018-06-02T16:34:33.337Z,23.20
2018-06-02T16:36:59.649Z,23.20
2018-06-02T16:39:26.727Z,23.60
2018-06-02T16:41:53.769Z,23.60
2018-06-02T16:44:20.034Z,23.60
2018-06-02T16:46:46.383Z,23.70
2018-06-02T16:49:12.676Z,23.80
2018-06-02T16:51:38.946Z,23.70
2018-06-02T16:54:05.955Z,23.90
2018-06-02T16:56:32.246Z,23.80
2018-06-02T16:58:59.292Z,23.80
2018-06-02T17:01:25.630Z,23.80
2018-06-02T17:03:51.940Z,23.60
2018-06-02T17:06:18.334Z,23.40
2018-06-02T17:08:44.586Z,23.40
2018-06-02T17:11:11.600Z,23.00
2018-06-02T17:13:37.965Z,23.00
2018-06-02T17:16:04.253Z,22.90
2018-06-02T17:18:30.615Z,22.80
2018-06-02T17:20:56.985Z,22.90
2018-06-02T17:23:23.394Z,22.80
2018-06-02T17:25:49.808Z,22.80
2018-06-02T17:28:16.176Z,22.80
2018-06-02T17:30:42.582Z,22.80
2018-06-02T17:33:09.588Z,22.60
2018-06-02T17:35:35.865Z,22.60
2018-06-02T17:38:02.158Z,22.60
2018-06-02T17:40:28.420Z,22.50
2018-06-02T17:42:54.763Z,22.50
2018-06-02T17:45:21.230Z,22.50
2018-06-02T17:47:47.502Z,22.50
2018-06-02T17:50:13.851Z,22.50
2018-06-02T17:52:40.941Z,22.40
2018-06-02T17:55:07.213Z,22.40
2018-06-02T17:57:33.811Z,22.30
2018-06-02T18:00:00.991Z,22.10
2018-06-02T18:02:27.752Z,22.00
2018-06-02T18:04:55.300Z,22.00
2018-06-02T18:07:22.251Z,21.80
2018-06-02T18:09:49.935Z,21.60
2018-06-02T18:12:16.850Z,21.60
2018-06-02T18:14:45.550Z,21.50
2018-06-02T18:17:13.911Z,21.40
2018-06-02T18:19:40.312Z,21.30
2018-06-02T18:22:07.414Z,21.20
2018-06-02T18:24:40.509Z,21.10
2018-06-02T18:27:06.881Z,21.10
2018-06-02T18:29:33.785Z,21.10
2018-06-02T18:32:00.910Z,21.10
2018-06-02T18:34:27.314Z,21.00
2018-06-02T18:36:53.691Z,21.00
2018-06-02T18:39:20.636Z,21.00
2018-06-02T18:41:47.251Z,20.90
2018-06-02T18:44:14.437Z,20.80
2018-06-02T18:46:41.049Z,20.80
2018-06-02T18:49:07.412Z,20.80
2018-06-02T18:51:33.814Z,20.70
2018-06-02T18:54:02.393Z,20.70
2018-06-02T18:56:29.028Z,20.50
2018-06-02T18:58:55.448Z,20.40
2018-06-02T19:01:22.092Z,20.30
2018-06-02T19:03:48.842Z,20.20
2018-06-02T19:06:15.697Z,20.20
2018-06-02T19:08:42.111Z,20.10
2018-06-02T19:13:40.291Z,19.90
2018-06-02T19:16:06.540Z,19.90
2018-06-02T19:18:32.719Z,19.80
2018-06-02T19:20:58.957Z,19.70
2018-06-02T19:23:28.259Z,19.70
2018-06-02T19:25:54.733Z,19.60
2018-06-02T19:28:21.876Z,19.50
2018-06-02T19:30:48.974Z,19.50
2018-06-02T19:33:15.268Z,19.50
2018-06-02T19:35:41.561Z,19.40
2018-06-02T19:38:07.866Z,19.40
2018-06-02T19:40:40.544Z,19.30
2018-06-02T19:43:07.010Z,19.30
2018-06-02T19:45:33.282Z,19.20
2018-06-02T19:48:00.299Z,19.10
2018-06-02T19:50:26.618Z,19.10
2018-06-02T19:52:52.874Z,19.10
2018-06-02T19:55:19.587Z,19.00
2018-06-02T19:57:45.889Z,19.00
2018-06-02T20:00:13.655Z,18.80
2018-06-02T20:02:39.946Z,18.80
2018-06-02T20:05:06.281Z,18.80
2018-06-02T20:07:32.580Z,18.70
2018-06-02T20:09:58.860Z,18.70
2018-06-02T20:12:25.296Z,18.60
2018-06-02T20:14:51.887Z,18.60
2018-06-02T20:17:18.341Z,18.60
2018-06-02T20:20:27.394Z,18.50
2018-06-02T20:22:55.078Z,18.50
2018-06-02T20:25:22.816Z,18.40
2018-06-02T20:27:50.556Z,18.50
2018-06-02T20:30:18.243Z,18.40
2018-06-02T20:32:45.957Z,18.30
2018-06-02T20:35:13.901Z,18.30
2018-06-02T20:37:41.657Z,18.30
2018-06-02T20:40:09.574Z,18.20
2018-06-02T20:45:10.687Z,18.30
2018-06-02T20:47:38.446Z,18.30
2018-06-02T20:50:06.376Z,18.20
2018-06-02T20:52:34.302Z,18.20
2018-06-02T20:55:02.343Z,18.10
2018-06-02T20:57:30.373Z,18.10
2018-06-02T20:59:58.831Z,18.10
2018-06-02T21:02:26.713Z,18.00
2018-06-02T21:04:54.432Z,18.00
2018-06-02T21:07:22.380Z,17.90
2018-06-02T21:09:50.383Z,17.90
2018-06-02T21:12:18.327Z,17.90
2018-06-02T21:14:46.244Z,17.90
2018-06-02T21:17:14.251Z,17.90
2018-06-02T21:19:42.177Z,17.80
2018-06-02T21:22:09.991Z,17.70
2018-06-02T21:24:37.884Z,17.70
2018-06-02T21:27:05.731Z,17.70
2018-06-02T21:29:33.695Z,17.60
2018-06-02T21:32:01.508Z,17.60
2018-06-02T21:34:29.437Z,17.60
2018-06-02T21:36:57.362Z,17.50
2018-06-02T21:39:25.257Z,17.40
2018-06-02T21:41:53.095Z,17.30
2018-06-02T21:44:20.879Z,17.30
2018-06-02T21:46:48.737Z,17.30
2018-06-02T21:49:16.717Z,17.30
2018-06-02T21:51:44.602Z,17.10
2018-06-02T21:54:12.464Z,17.10
2018-06-02T21:56:40.338Z,17.00
2018-06-02T21:59:08.199Z,17.00
2018-06-02T22:01:36.091Z,17.00
2018-06-02T22:04:04.160Z,17.00
2018-06-02T22:06:32.862Z,16.90
2018-06-02T22:09:00.951Z,17.00
2018-06-02T22:11:29.054Z,17.10
2018-06-02T22:13:57.021Z,17.20
2018-06-02T22:16:25.045Z,17.20
2018-06-02T22:18:52.919Z,17.00
2018-06-02T22:21:20.895Z,17.00
2018-06-02T22:23:48.862Z,16.90
2018-06-02T22:26:16.751Z,16.80
2018-06-02T22:28:44.643Z,16.70
2018-06-02T22:31:12.709Z,16.60
2018-06-02T22:33:40.578Z,16.60
2018-06-02T22:36:08.504Z,16.50
2018-06-02T22:38:36.437Z,16.60
2018-06-02T22:41:04.401Z,16.60
2018-06-02T22:43:32.740Z,16.70
2018-06-02T22:46:00.689Z,16.60
2018-06-02T22:48:28.680Z,16.60
2018-06-02T22:50:56.672Z,16.60
2018-06-02T22:53:24.746Z,16.60
2018-06-02T22:55:52.761Z,16.60
2018-06-02T22:58:20.701Z,16.60
2018-06-02T23:00:48.585Z,16.50
2018-06-02T23:03:16.613Z,16.50
2018-06-02T23:05:44.669Z,16.50
2018-06-02T23:08:12.644Z,16.40
2018-06-02T23:10:40.527Z,16.40
2018-06-02T23:13:08.581Z,16.30
2018-06-02T23:15:36.564Z,16.30
2018-06-02T23:18:04.522Z,16.20
2018-06-02T23:20:32.467Z,16.10
2018-06-02T23:23:00.360Z,16.10
2018-06-02T23:25:28.222Z,16.00
2018-06-02T23:27:56.060Z,16.00
2018-06-02T23:30:23.991Z,16.00
2018-06-02T23:32:51.843Z,16.00
2018-06-02T23:35:19.826Z,16.00
2018-06-02T23:37:49.210Z,16.00
2018-06-02T23:40:16.991Z,16.00
2018-06-02T23:42:44.893Z,16.10
2018-06-02T23:45:12.774Z,16.10
2018-06-02T23:47:40.845Z,16.00
2018-06-02T23:50:08.664Z,16.10
2018-06-02T23:52:36.528Z,16.00
2018-06-02T23:55:04.382Z,15.90
2018-06-02T23:57:32.273Z,16.00
